sensor_id;sensor_type;location;lat;lon;timestamp;P1;durP1;ratioP1;P2;durP2;ratioP2
64826;SDS011;51265;53.972;12.286;2023-08-24T00:01:28;5.13;;;2.85;;
64826;SDS011;51265;53.972;12.286;2023-08-24T00:03:54;5.50;;;3.35;;
64826;SDS011;51265;53.972;12.286;2023-08-24T00:06:21;5.93;;;2.92;;
64826;SDS011;51265;53.972;12.286;2023-08-24T00:08:47;6.15;;;3.13;;
64826;SDS011;51265;53.972;12.286;2023-08-24T00:11:14;4.57;;;2.97;;
64826;SDS011;51265;53.972;12.286;2023-08-24T00:13:43;4.97;;;3.20;;
64826;SDS011;51265;53.972;12.286;2023-08-24T00:16:20;5.55;;;2.95;;
64826;SDS011;51265;53.972;12.286;2023-08-24T00:18:46;3.83;;;2.83;;
64826;SDS011;51265;53.972;12.286;2023-08-24T00:21:13;4.20;;;2.33;;
64826;SDS011;51265;53.972;12.286;2023-08-24T00:23:43;8.30;;;3.65;;
64826;SDS011;51265;53.972;12.286;2023-08-24T00:26:10;7.35;;;2.80;;
64826;SDS011;51265;53.972;12.286;2023-08-24T00:28:36;6.03;;;2.97;;
64826;SDS011;51265;53.972;12.286;2023-08-24T00:31:03;5.38;;;2.92;;
64826;SDS011;51265;53.972;12.286;2023-08-24T00:33:29;6.63;;;2.95;;
64826;SDS011;51265;53.972;12.286;2023-08-24T00:35:59;4.63;;;2.70;;
64826;SDS011;51265;53.972;12.286;2023-08-24T00:38:27;6.13;;;2.88;;
64826;SDS011;51265;53.972;12.286;2023-08-24T00:40:54;6.57;;;3.08;;
64826;SDS011;51265;53.972;12.286;2023-08-24T00:43:21;5.80;;;3.30;;
64826;SDS011;51265;53.972;12.286;2023-08-24T00:45:50;4.18;;;3.20;;
64826;SDS011;51265;53.972;12.286;2023-08-24T00:48:18;5.22;;;3.20;;
64826;SDS011;51265;53.972;12.286;2023-08-24T00:50:45;4.50;;;3.42;;
64826;SDS011;51265;53.972;12.286;2023-08-24T00:53:23;8.15;;;4.68;;
64826;SDS011;51265;53.972;12.286;2023-08-24T00:55:52;5.80;;;4.38;;
64826;SDS011;51265;53.972;12.286;2023-08-24T00:58:19;5.82;;;4.07;;
64826;SDS011;51265;53.972;12.286;2023-08-24T01:00:47;5.63;;;4.55;;
64826;SDS011;51265;53.972;12.286;2023-08-24T01:03:17;7.47;;;4.53;;
64826;SDS011;51265;53.972;12.286;2023-08-24T01:05:44;7.38;;;4.80;;
64826;SDS011;51265;53.972;12.286;2023-08-24T01:08:11;8.40;;;4.45;;
64826;SDS011;51265;53.972;12.286;2023-08-24T01:10:41;8.25;;;4.45;;
64826;SDS011;51265;53.972;12.286;2023-08-24T01:13:13;9.27;;;4.50;;
64826;SDS011;51265;53.972;12.286;2023-08-24T01:15:47;8.07;;;5.53;;
64826;SDS011;51265;53.972;12.286;2023-08-24T01:18:22;8.40;;;5.32;;
64826;SDS011;51265;53.972;12.286;2023-08-24T01:20:53;11.30;;;5.57;;
64826;SDS011;51265;53.972;12.286;2023-08-24T01:26:17;8.50;;;5.90;;
64826;SDS011;51265;53.972;12.286;2023-08-24T01:28:45;11.50;;;6.35;;
64826;SDS011;51265;53.972;12.286;2023-08-24T01:31:13;6.72;;;5.30;;
64826;SDS011;51265;53.972;12.286;2023-08-24T01:33:41;9.85;;;5.95;;
64826;SDS011;51265;53.972;12.286;2023-08-24T01:42:35;8.38;;;5.78;;
64826;SDS011;51265;53.972;12.286;2023-08-24T01:45:07;8.48;;;6.30;;
64826;SDS011;51265;53.972;12.286;2023-08-24T01:47:35;9.50;;;5.75;;
64826;SDS011;51265;53.972;12.286;2023-08-24T01:50:04;7.10;;;5.70;;
64826;SDS011;51265;53.972;12.286;2023-08-24T01:52:31;10.40;;;6.53;;
64826;SDS011;51265;53.972;12.286;2023-08-24T01:54:58;6.97;;;6.00;;
64826;SDS011;51265;53.972;12.286;2023-08-24T01:57:25;11.50;;;6.00;;
64826;SDS011;51265;53.972;12.286;2023-08-24T01:59:52;10.73;;;5.95;;
64826;SDS011;51265;53.972;12.286;2023-08-24T02:02:18;9.55;;;6.45;;
64826;SDS011;51265;53.972;12.286;2023-08-24T02:04:44;6.50;;;5.68;;
64826;SDS011;51265;53.972;12.286;2023-08-24T02:07:11;10.07;;;6.40;;
64826;SDS011;51265;53.972;12.286;2023-08-24T02:09:37;13.32;;;7.07;;
64826;SDS011;51265;53.972;12.286;2023-08-24T02:12:04;9.70;;;6.30;;
64826;SDS011;51265;53.972;12.286;2023-08-24T02:14:32;8.63;;;5.85;;
64826;SDS011;51265;53.972;12.286;2023-08-24T02:16:59;11.30;;;6.55;;
64826;SDS011;51265;53.972;12.286;2023-08-24T02:19:25;10.38;;;6.20;;
64826;SDS011;51265;53.972;12.286;2023-08-24T02:21:52;12.68;;;6.70;;
64826;SDS011;51265;53.972;12.286;2023-08-24T02:24:18;9.65;;;6.30;;
64826;SDS011;51265;53.972;12.286;2023-08-24T02:26:45;10.63;;;7.50;;
64826;SDS011;51265;53.972;12.286;2023-08-24T02:29:11;14.88;;;9.10;;
64826;SDS011;51265;53.972;12.286;2023-08-24T02:31:38;18.15;;;9.35;;
64826;SDS011;51265;53.972;12.286;2023-08-24T02:34:04;17.25;;;9.43;;
64826;SDS011;51265;53.972;12.286;2023-08-24T02:36:30;12.35;;;9.63;;
64826;SDS011;51265;53.972;12.286;2023-08-24T02:38:59;15.75;;;10.25;;
64826;SDS011;51265;53.972;12.286;2023-08-24T02:41:26;18.15;;;10.70;;
64826;SDS011;51265;53.972;12.286;2023-08-24T02:43:53;16.35;;;10.85;;
64826;SDS011;51265;53.972;12.286;2023-08-24T02:46:20;16.58;;;11.77;;
64826;SDS011;51265;53.972;12.286;2023-08-24T02:48:47;17.20;;;10.45;;
64826;SDS011;51265;53.972;12.286;2023-08-24T02:51:14;13.82;;;11.07;;
64826;SDS011;51265;53.972;12.286;2023-08-24T02:53:40;16.35;;;12.32;;
64826;SDS011;51265;53.972;12.286;2023-08-24T02:56:07;18.67;;;12.85;;
64826;SDS011;51265;53.972;12.286;2023-08-24T02:58:34;20.50;;;13.50;;
64826;SDS011;51265;53.972;12.286;2023-08-24T03:01:04;17.00;;;12.82;;
64826;SDS011;51265;53.972;12.286;2023-08-24T03:03:34;21.17;;;12.90;;
64826;SDS011;51265;53.972;12.286;2023-08-24T03:06:02;16.30;;;11.98;;
64826;SDS011;51265;53.972;12.286;2023-08-24T03:08:31;18.00;;;11.32;;
64826;SDS011;51265;53.972;12.286;2023-08-24T03:10:59;17.23;;;11.93;;
64826;SDS011;51265;53.972;12.286;2023-08-24T03:13:27;15.93;;;11.57;;
64826;SDS011;51265;53.972;12.286;2023-08-24T03:15:54;18.33;;;12.38;;
64826;SDS011;51265;53.972;12.286;2023-08-24T03:18:23;16.15;;;10.95;;
64826;SDS011;51265;53.972;12.286;2023-08-24T03:20:49;15.75;;;12.20;;
64826;SDS011;51265;53.972;12.286;2023-08-24T03:23:16;14.73;;;12.15;;
64826;SDS011;51265;53.972;12.286;2023-08-24T03:25:42;15.50;;;11.98;;
64826;SDS011;51265;53.972;12.286;2023-08-24T03:28:09;18.15;;;11.82;;
64826;SDS011;51265;53.972;12.286;2023-08-24T03:30:36;15.73;;;11.63;;
64826;SDS011;51265;53.972;12.286;2023-08-24T03:33:04;18.55;;;11.75;;
64826;SDS011;51265;53.972;12.286;2023-08-24T03:35:32;15.52;;;11.60;;
64826;SDS011;51265;53.972;12.286;2023-08-24T03:37:59;14.63;;;12.60;;
64826;SDS011;51265;53.972;12.286;2023-08-24T03:40:26;21.60;;;13.45;;
64826;SDS011;51265;53.972;12.286;2023-08-24T03:42:53;17.50;;;12.77;;
64826;SDS011;51265;53.972;12.286;2023-08-24T03:45:19;18.50;;;12.35;;
64826;SDS011;51265;53.972;12.286;2023-08-24T03:47:46;17.08;;;13.50;;
64826;SDS011;51265;53.972;12.286;2023-08-24T03:50:12;19.10;;;13.73;;
64826;SDS011;51265;53.972;12.286;2023-08-24T03:52:39;19.52;;;13.95;;
64826;SDS011;51265;53.972;12.286;2023-08-24T03:55:06;17.38;;;12.05;;
64826;SDS011;51265;53.972;12.286;2023-08-24T03:57:33;22.88;;;13.55;;
64826;SDS011;51265;53.972;12.286;2023-08-24T04:00:02;19.23;;;12.65;;
64826;SDS011;51265;53.972;12.286;2023-08-24T04:02:40;20.70;;;13.43;;
64826;SDS011;51265;53.972;12.286;2023-08-24T04:05:08;22.95;;;13.65;;
64826;SDS011;51265;53.972;12.286;2023-08-24T04:07:34;17.45;;;14.07;;
64826;SDS011;51265;53.972;12.286;2023-08-24T04:10:02;22.13;;;14.55;;
64826;SDS011;51265;53.972;12.286;2023-08-24T04:12:31;22.95;;;14.77;;
64826;SDS011;51265;53.972;12.286;2023-08-24T04:14:57;23.25;;;14.40;;
64826;SDS011;51265;53.972;12.286;2023-08-24T04:17:24;21.30;;;13.88;;
64826;SDS011;51265;53.972;12.286;2023-08-24T04:19:51;20.73;;;13.85;;
64826;SDS011;51265;53.972;12.286;2023-08-24T04:22:19;23.08;;;14.73;;
64826;SDS011;51265;53.972;12.286;2023-08-24T04:24:45;20.25;;;14.38;;
64826;SDS011;51265;53.972;12.286;2023-08-24T04:27:11;22.13;;;14.70;;
64826;SDS011;51265;53.972;12.286;2023-08-24T04:29:38;21.95;;;14.85;;
64826;SDS011;51265;53.972;12.286;2023-08-24T04:32:04;20.92;;;15.38;;
64826;SDS011;51265;53.972;12.286;2023-08-24T04:34:30;21.17;;;15.82;;
64826;SDS011;51265;53.972;12.286;2023-08-24T04:36:56;26.10;;;16.40;;
64826;SDS011;51265;53.972;12.286;2023-08-24T04:39:22;27.83;;;15.95;;
64826;SDS011;51265;53.972;12.286;2023-08-24T04:41:48;22.67;;;14.50;;
64826;SDS011;51265;53.972;12.286;2023-08-24T04:44:15;22.33;;;14.60;;
64826;SDS011;51265;53.972;12.286;2023-08-24T04:46:42;25.30;;;16.15;;
64826;SDS011;51265;53.972;12.286;2023-08-24T04:49:08;22.45;;;15.98;;
64826;SDS011;51265;53.972;12.286;2023-08-24T04:51:34;28.40;;;16.38;;
64826;SDS011;51265;53.972;12.286;2023-08-24T04:54:00;27.67;;;17.42;;
64826;SDS011;51265;53.972;12.286;2023-08-24T04:56:26;26.05;;;16.60;;
64826;SDS011;51265;53.972;12.286;2023-08-24T04:58:53;26.23;;;17.55;;
64826;SDS011;51265;53.972;12.286;2023-08-24T05:01:21;26.55;;;17.63;;
64826;SDS011;51265;53.972;12.286;2023-08-24T05:03:47;24.50;;;18.05;;
64826;SDS011;51265;53.972;12.286;2023-08-24T05:06:13;25.58;;;17.67;;
64826;SDS011;51265;53.972;12.286;2023-08-24T05:08:39;26.08;;;18.67;;
64826;SDS011;51265;53.972;12.286;2023-08-24T05:11:10;27.10;;;17.95;;
64826;SDS011;51265;53.972;12.286;2023-08-24T05:13:47;24.95;;;18.45;;
64826;SDS011;51265;53.972;12.286;2023-08-24T05:16:13;29.73;;;20.45;;
64826;SDS011;51265;53.972;12.286;2023-08-24T05:22:45;27.35;;;18.23;;
64826;SDS011;51265;53.972;12.286;2023-08-24T05:25:12;33.22;;;16.50;;
64826;SDS011;51265;53.972;12.286;2023-08-24T05:27:38;22.50;;;14.75;;
64826;SDS011;51265;53.972;12.286;2023-08-24T05:30:06;24.48;;;14.60;;
64826;SDS011;51265;53.972;12.286;2023-08-24T05:32:32;20.30;;;13.90;;
64826;SDS011;51265;53.972;12.286;2023-08-24T05:34:59;19.58;;;13.43;;
64826;SDS011;51265;53.972;12.286;2023-08-24T05:37:26;22.48;;;13.43;;
64826;SDS011;51265;53.972;12.286;2023-08-24T05:39:52;21.30;;;12.95;;
64826;SDS011;51265;53.972;12.286;2023-08-24T05:42:18;16.35;;;12.50;;
64826;SDS011;51265;53.972;12.286;2023-08-24T05:44:44;16.35;;;11.38;;
64826;SDS011;51265;53.972;12.286;2023-08-24T05:47:10;16.30;;;10.80;;
64826;SDS011;51265;53.972;12.286;2023-08-24T05:49:37;16.50;;;9.82;;
64826;SDS011;51265;53.972;12.286;2023-08-24T05:52:03;13.45;;;8.68;;
64826;SDS011;51265;53.972;12.286;2023-08-24T05:54:29;13.02;;;8.65;;
64826;SDS011;51265;53.972;12.286;2023-08-24T05:56:56;14.20;;;8.65;;
64826;SDS011;51265;53.972;12.286;2023-08-24T05:59:26;15.23;;;8.15;;
64826;SDS011;51265;53.972;12.286;2023-08-24T06:01:53;12.77;;;9.05;;
64826;SDS011;51265;53.972;12.286;2023-08-24T06:04:19;15.45;;;7.57;;
64826;SDS011;51265;53.972;12.286;2023-08-24T06:06:46;10.60;;;6.22;;
64826;SDS011;51265;53.972;12.286;2023-08-24T06:09:12;10.25;;;5.70;;
64826;SDS011;51265;53.972;12.286;2023-08-24T06:11:38;10.75;;;6.70;;
64826;SDS011;51265;53.972;12.286;2023-08-24T06:14:06;11.07;;;5.47;;
64826;SDS011;51265;53.972;12.286;2023-08-24T06:16:33;9.23;;;5.55;;
64826;SDS011;51265;53.972;12.286;2023-08-24T06:18:59;14.07;;;5.50;;
64826;SDS011;51265;53.972;12.286;2023-08-24T06:21:26;9.73;;;6.03;;
64826;SDS011;51265;53.972;12.286;2023-08-24T06:23:52;9.80;;;4.60;;
64826;SDS011;51265;53.972;12.286;2023-08-24T06:26:18;11.95;;;5.22;;
64826;SDS011;51265;53.972;12.286;2023-08-24T06:28:45;9.93;;;5.25;;
64826;SDS011;51265;53.972;12.286;2023-08-24T06:31:11;7.15;;;4.30;;
64826;SDS011;51265;53.972;12.286;2023-08-24T06:33:37;6.82;;;4.38;;
64826;SDS011;51265;53.972;12.286;2023-08-24T06:36:04;9.95;;;4.60;;
64826;SDS011;51265;53.972;12.286;2023-08-24T06:38:34;10.05;;;4.20;;
64826;SDS011;51265;53.972;12.286;2023-08-24T06:41:00;8.73;;;3.78;;
64826;SDS011;51265;53.972;12.286;2023-08-24T06:43:27;8.43;;;4.10;;
64826;SDS011;51265;53.972;12.286;2023-08-24T06:45:56;6.20;;;3.30;;
64826;SDS011;51265;53.972;12.286;2023-08-24T06:48:23;6.35;;;3.65;;
64826;SDS011;51265;53.972;12.286;2023-08-24T06:50:49;6.80;;;4.07;;
64826;SDS011;51265;53.972;12.286;2023-08-24T06:53:15;5.40;;;3.50;;
64826;SDS011;51265;53.972;12.286;2023-08-24T06:55:42;7.82;;;3.53;;
64826;SDS011;51265;53.972;12.286;2023-08-24T06:58:08;4.07;;;2.40;;
64826;SDS011;51265;53.972;12.286;2023-08-24T07:00:35;8.13;;;2.13;;
64826;SDS011;51265;53.972;12.286;2023-08-24T07:03:01;5.20;;;2.22;;
64826;SDS011;51265;53.972;12.286;2023-08-24T07:05:27;4.35;;;2.35;;
64826;SDS011;51265;53.972;12.286;2023-08-24T07:07:54;5.72;;;2.53;;
64826;SDS011;51265;53.972;12.286;2023-08-24T07:10:21;5.32;;;2.83;;
64826;SDS011;51265;53.972;12.286;2023-08-24T07:12:47;4.82;;;2.55;;
64826;SDS011;51265;53.972;12.286;2023-08-24T07:15:13;5.05;;;1.73;;
64826;SDS011;51265;53.972;12.286;2023-08-24T07:17:40;6.57;;;1.60;;
64826;SDS011;51265;53.972;12.286;2023-08-24T07:20:06;3.45;;;1.60;;
64826;SDS011;51265;53.972;12.286;2023-08-24T07:22:37;5.05;;;1.70;;
64826;SDS011;51265;53.972;12.286;2023-08-24T07:25:04;9.52;;;1.85;;
64826;SDS011;51265;53.972;12.286;2023-08-24T07:27:34;7.28;;;1.65;;
64826;SDS011;51265;53.972;12.286;2023-08-24T07:30:01;3.80;;;1.33;;
64826;SDS011;51265;53.972;12.286;2023-08-24T07:32:31;3.17;;;1.02;;
64826;SDS011;51265;53.972;12.286;2023-08-24T07:34:58;3.63;;;1.30;;
64826;SDS011;51265;53.972;12.286;2023-08-24T07:37:27;2.85;;;1.20;;
64826;SDS011;51265;53.972;12.286;2023-08-24T07:39:53;3.35;;;1.40;;
64826;SDS011;51265;53.972;12.286;2023-08-24T07:42:20;3.80;;;0.90;;
64826;SDS011;51265;53.972;12.286;2023-08-24T07:44:48;4.40;;;1.25;;
64826;SDS011;51265;53.972;12.286;2023-08-24T07:47:15;5.72;;;1.17;;
64826;SDS011;51265;53.972;12.286;2023-08-24T07:49:42;4.68;;;1.55;;
64826;SDS011;51265;53.972;12.286;2023-08-24T07:52:13;4.32;;;1.20;;
64826;SDS011;51265;53.972;12.286;2023-08-24T07:54:39;6.03;;;1.52;;
64826;SDS011;51265;53.972;12.286;2023-08-24T07:57:05;5.75;;;1.20;;
64826;SDS011;51265;53.972;12.286;2023-08-24T07:59:32;1.83;;;0.75;;
64826;SDS011;51265;53.972;12.286;2023-08-24T08:01:58;2.72;;;1.05;;
64826;SDS011;51265;53.972;12.286;2023-08-24T08:04:24;1.35;;;0.70;;
64826;SDS011;51265;53.972;12.286;2023-08-24T08:06:51;2.50;;;0.75;;
64826;SDS011;51265;53.972;12.286;2023-08-24T08:09:17;2.13;;;0.90;;
64826;SDS011;51265;53.972;12.286;2023-08-24T08:11:43;1.88;;;0.73;;
64826;SDS011;51265;53.972;12.286;2023-08-24T08:14:09;2.55;;;0.75;;
64826;SDS011;51265;53.972;12.286;2023-08-24T08:16:35;1.67;;;0.73;;
64826;SDS011;51265;53.972;12.286;2023-08-24T08:19:02;2.08;;;0.80;;
64826;SDS011;51265;53.972;12.286;2023-08-24T08:21:28;7.18;;;0.80;;
64826;SDS011;51265;53.972;12.286;2023-08-24T08:23:56;2.58;;;1.00;;
64826;SDS011;51265;53.972;12.286;2023-08-24T08:26:22;3.92;;;0.88;;
64826;SDS011;51265;53.972;12.286;2023-08-24T08:28:48;3.08;;;0.90;;
64826;SDS011;51265;53.972;12.286;2023-08-24T08:31:14;4.40;;;0.73;;
64826;SDS011;51265;53.972;12.286;2023-08-24T08:33:41;2.35;;;0.80;;
64826;SDS011;51265;53.972;12.286;2023-08-24T08:36:07;0.93;;;0.60;;
64826;SDS011;51265;53.972;12.286;2023-08-24T08:38:33;6.18;;;0.82;;
64826;SDS011;51265;53.972;12.286;2023-08-24T08:41:03;2.78;;;0.77;;
64826;SDS011;51265;53.972;12.286;2023-08-24T08:43:30;1.85;;;0.75;;
64826;SDS011;51265;53.972;12.286;2023-08-24T08:45:56;4.28;;;0.77;;
64826;SDS011;51265;53.972;12.286;2023-08-24T08:48:24;4.47;;;0.60;;
64826;SDS011;51265;53.972;12.286;2023-08-24T08:50:51;3.67;;;0.80;;
64826;SDS011;51265;53.972;12.286;2023-08-24T08:53:22;1.92;;;0.50;;
64826;SDS011;51265;53.972;12.286;2023-08-24T08:55:51;6.80;;;0.80;;
64826;SDS011;51265;53.972;12.286;2023-08-24T08:58:19;2.33;;;0.63;;
64826;SDS011;51265;53.972;12.286;2023-08-24T09:00:46;2.03;;;0.60;;
64826;SDS011;51265;53.972;12.286;2023-08-24T09:03:14;6.03;;;0.75;;
64826;SDS011;51265;53.972;12.286;2023-08-24T09:05:43;1.77;;;0.50;;
64826;SDS011;51265;53.972;12.286;2023-08-24T09:08:15;4.20;;;0.60;;
64826;SDS011;51265;53.972;12.286;2023-08-24T09:10:42;2.38;;;0.73;;
64826;SDS011;51265;53.972;12.286;2023-08-24T09:13:08;1.90;;;0.80;;
64826;SDS011;51265;53.972;12.286;2023-08-24T09:15:34;3.00;;;0.55;;
64826;SDS011;51265;53.972;12.286;2023-08-24T09:18:02;2.28;;;0.52;;
64826;SDS011;51265;53.972;12.286;2023-08-24T09:20:29;1.65;;;0.55;;
64826;SDS011;51265;53.972;12.286;2023-08-24T09:22:55;2.42;;;0.60;;
64826;SDS011;51265;53.972;12.286;2023-08-24T09:25:25;3.70;;;0.60;;
64826;SDS011;51265;53.972;12.286;2023-08-24T09:28:02;2.28;;;0.55;;
64826;SDS011;51265;53.972;12.286;2023-08-24T09:30:32;2.47;;;0.50;;
64826;SDS011;51265;53.972;12.286;2023-08-24T09:33:01;3.58;;;0.45;;
64826;SDS011;51265;53.972;12.286;2023-08-24T09:35:28;2.63;;;0.60;;
64826;SDS011;51265;53.972;12.286;2023-08-24T09:37:55;4.38;;;0.60;;
64826;SDS011;51265;53.972;12.286;2023-08-24T09:40:24;4.80;;;0.65;;
64826;SDS011;51265;53.972;12.286;2023-08-24T09:42:54;4.57;;;0.55;;
64826;SDS011;51265;53.972;12.286;2023-08-24T09:45:20;2.33;;;0.60;;
64826;SDS011;51265;53.972;12.286;2023-08-24T09:47:49;2.47;;;0.45;;
64826;SDS011;51265;53.972;12.286;2023-08-24T09:50:17;3.88;;;0.60;;
64826;SDS011;51265;53.972;12.286;2023-08-24T09:52:43;3.28;;;0.82;;
64826;SDS011;51265;53.972;12.286;2023-08-24T09:55:12;0.60;;;0.32;;
64826;SDS011;51265;53.972;12.286;2023-08-24T09:57:44;0.98;;;0.45;;
64826;SDS011;51265;53.972;12.286;2023-08-24T10:00:13;0.77;;;0.45;;
64826;SDS011;51265;53.972;12.286;2023-08-24T10:02:44;2.92;;;0.50;;
64826;SDS011;51265;53.972;12.286;2023-08-24T10:05:19;3.13;;;0.50;;
64826;SDS011;51265;53.972;12.286;2023-08-24T10:07:49;4.20;;;0.60;;
64826;SDS011;51265;53.972;12.286;2023-08-24T10:10:19;2.70;;;0.50;;
64826;SDS011;51265;53.972;12.286;2023-08-24T10:12:48;2.17;;;0.50;;
64826;SDS011;51265;53.972;12.286;2023-08-24T10:15:17;1.40;;;0.40;;
64826;SDS011;51265;53.972;12.286;2023-08-24T10:17:44;1.52;;;0.55;;
64826;SDS011;51265;53.972;12.286;2023-08-24T10:20:11;2.10;;;0.50;;
64826;SDS011;51265;53.972;12.286;2023-08-24T10:22:37;2.15;;;0.47;;
64826;SDS011;51265;53.972;12.286;2023-08-24T10:25:07;2.75;;;0.68;;
64826;SDS011;51265;53.972;12.286;2023-08-24T10:27:34;2.78;;;0.57;;
64826;SDS011;51265;53.972;12.286;2023-08-24T10:30:01;1.85;;;0.50;;
64826;SDS011;51265;53.972;12.286;2023-08-24T10:32:28;2.80;;;0.70;;
64826;SDS011;51265;53.972;12.286;2023-08-24T10:34:55;2.20;;;0.40;;
64826;SDS011;51265;53.972;12.286;2023-08-24T10:37:24;1.85;;;0.75;;
64826;SDS011;51265;53.972;12.286;2023-08-24T10:39:52;2.05;;;0.57;;
64826;SDS011;51265;53.972;12.286;2023-08-24T10:42:18;1.75;;;0.60;;
64826;SDS011;51265;53.972;12.286;2023-08-24T10:44:45;1.67;;;0.60;;
64826;SDS011;51265;53.972;12.286;2023-08-24T10:47:17;4.63;;;0.70;;
64826;SDS011;51265;53.972;12.286;2023-08-24T10:52:24;2.70;;;0.60;;
64826;SDS011;51265;53.972;12.286;2023-08-24T10:55:00;2.72;;;0.57;;
64826;SDS011;51265;53.972;12.286;2023-08-24T10:57:37;3.30;;;0.75;;
64826;SDS011;51265;53.972;12.286;2023-08-24T11:02:42;6.45;;;0.77;;
64826;SDS011;51265;53.972;12.286;2023-08-24T11:07:57;4.57;;;0.60;;
64826;SDS011;51265;53.972;12.286;2023-08-24T11:10:46;2.53;;;0.40;;
64826;SDS011;51265;53.972;12.286;2023-08-24T11:13:13;2.20;;;0.63;;
64826;SDS011;51265;53.972;12.286;2023-08-24T11:15:41;4.90;;;0.43;;
64826;SDS011;51265;53.972;12.286;2023-08-24T11:18:13;1.83;;;0.60;;
64826;SDS011;51265;53.972;12.286;2023-08-24T11:20:42;3.92;;;0.60;;
64826;SDS011;51265;53.972;12.286;2023-08-24T11:23:10;5.50;;;0.63;;
64826;SDS011;51265;53.972;12.286;2023-08-24T11:25:37;3.58;;;0.73;;
64826;SDS011;51265;53.972;12.286;2023-08-24T11:28:04;3.08;;;0.60;;
64826;SDS011;51265;53.972;12.286;2023-08-24T11:30:35;1.77;;;0.60;;
64826;SDS011;51265;53.972;12.286;2023-08-24T11:33:03;4.57;;;0.60;;
64826;SDS011;51265;53.972;12.286;2023-08-24T11:35:34;1.63;;;0.57;;
64826;SDS011;51265;53.972;12.286;2023-08-24T11:38:02;3.15;;;0.75;;
64826;SDS011;51265;53.972;12.286;2023-08-24T11:40:29;3.90;;;0.70;;
64826;SDS011;51265;53.972;12.286;2023-08-24T11:42:56;2.95;;;0.70;;
64826;SDS011;51265;53.972;12.286;2023-08-24T11:45:22;1.98;;;0.63;;
64826;SDS011;51265;53.972;12.286;2023-08-24T11:47:50;1.17;;;0.45;;
64826;SDS011;51265;53.972;12.286;2023-08-24T11:50:17;2.08;;;0.55;;
64826;SDS011;51265;53.972;12.286;2023-08-24T11:52:43;2.13;;;0.70;;
64826;SDS011;51265;53.972;12.286;2023-08-24T11:55:10;1.45;;;0.60;;
64826;SDS011;51265;53.972;12.286;2023-08-24T11:57:38;5.00;;;0.65;;
64826;SDS011;51265;53.972;12.286;2023-08-24T12:00:05;4.00;;;0.40;;
64826;SDS011;51265;53.972;12.286;2023-08-24T12:02:32;2.58;;;0.50;;
64826;SDS011;51265;53.972;12.286;2023-08-24T12:04:58;5.70;;;0.57;;
64826;SDS011;51265;53.972;12.286;2023-08-24T12:07:25;2.25;;;0.68;;
64826;SDS011;51265;53.972;12.286;2023-08-24T12:09:53;1.52;;;0.50;;
64826;SDS011;51265;53.972;12.286;2023-08-24T12:12:20;3.10;;;0.50;;
64826;SDS011;51265;53.972;12.286;2023-08-24T12:14:47;2.58;;;0.63;;
64826;SDS011;51265;53.972;12.286;2023-08-24T12:17:14;1.73;;;0.75;;
64826;SDS011;51265;53.972;12.286;2023-08-24T12:19:42;2.60;;;0.50;;
64826;SDS011;51265;53.972;12.286;2023-08-24T12:22:21;1.48;;;0.40;;
64826;SDS011;51265;53.972;12.286;2023-08-24T12:24:48;2.30;;;0.63;;
64826;SDS011;51265;53.972;12.286;2023-08-24T12:27:18;5.78;;;0.40;;
64826;SDS011;51265;53.972;12.286;2023-08-24T12:29:47;2.83;;;0.60;;
64826;SDS011;51265;53.972;12.286;2023-08-24T12:32:15;2.35;;;0.70;;
64826;SDS011;51265;53.972;12.286;2023-08-24T12:34:42;3.88;;;0.68;;
64826;SDS011;51265;53.972;12.286;2023-08-24T12:37:09;4.13;;;0.50;;
64826;SDS011;51265;53.972;12.286;2023-08-24T12:39:36;3.67;;;0.80;;
64826;SDS011;51265;53.972;12.286;2023-08-24T12:42:03;2.30;;;0.73;;
64826;SDS011;51265;53.972;12.286;2023-08-24T12:44:30;3.60;;;0.77;;
64826;SDS011;51265;53.972;12.286;2023-08-24T12:46:56;5.25;;;1.00;;
64826;SDS011;51265;53.972;12.286;2023-08-24T12:49:22;4.22;;;1.20;;
64826;SDS011;51265;53.972;12.286;2023-08-24T12:51:49;3.33;;;0.60;;
64826;SDS011;51265;53.972;12.286;2023-08-24T12:54:15;4.47;;;0.77;;
64826;SDS011;51265;53.972;12.286;2023-08-24T12:56:42;1.73;;;0.68;;
64826;SDS011;51265;53.972;12.286;2023-08-24T12:59:08;1.55;;;0.70;;
64826;SDS011;51265;53.972;12.286;2023-08-24T13:01:34;3.25;;;0.75;;
64826;SDS011;51265;53.972;12.286;2023-08-24T13:04:01;1.50;;;0.70;;
64826;SDS011;51265;53.972;12.286;2023-08-24T13:06:27;2.10;;;0.75;;
64826;SDS011;51265;53.972;12.286;2023-08-24T13:08:54;7.13;;;1.20;;
64826;SDS011;51265;53.972;12.286;2023-08-24T13:11:21;4.35;;;1.08;;
64826;SDS011;51265;53.972;12.286;2023-08-24T13:13:48;1.52;;;0.50;;
64826;SDS011;51265;53.972;12.286;2023-08-24T13:16:15;4.65;;;1.10;;
64826;SDS011;51265;53.972;12.286;2023-08-24T13:18:42;3.38;;;0.82;;
64826;SDS011;51265;53.972;12.286;2023-08-24T13:21:09;2.70;;;0.90;;
64826;SDS011;51265;53.972;12.286;2023-08-24T13:23:35;3.97;;;0.95;;
64826;SDS011;51265;53.972;12.286;2023-08-24T13:26:02;3.25;;;0.90;;
64826;SDS011;51265;53.972;12.286;2023-08-24T13:28:28;2.33;;;0.98;;
64826;SDS011;51265;53.972;12.286;2023-08-24T13:30:55;3.53;;;1.00;;
64826;SDS011;51265;53.972;12.286;2023-08-24T13:33:21;2.05;;;0.98;;
64826;SDS011;51265;53.972;12.286;2023-08-24T13:35:48;4.72;;;1.17;;
64826;SDS011;51265;53.972;12.286;2023-08-24T13:38:14;3.75;;;1.13;;
64826;SDS011;51265;53.972;12.286;2023-08-24T13:40:41;6.10;;;1.05;;
64826;SDS011;51265;53.972;12.286;2023-08-24T13:43:08;4.55;;;1.42;;
64826;SDS011;51265;53.972;12.286;2023-08-24T13:45:34;5.95;;;1.40;;
64826;SDS011;51265;53.972;12.286;2023-08-24T13:48:00;7.47;;;1.70;;
64826;SDS011;51265;53.972;12.286;2023-08-24T13:50:27;11.18;;;1.70;;
64826;SDS011;51265;53.972;12.286;2023-08-24T13:52:53;5.90;;;1.30;;
64826;SDS011;51265;53.972;12.286;2023-08-24T13:55:22;3.90;;;1.02;;
64826;SDS011;51265;53.972;12.286;2023-08-24T13:57:48;2.50;;;0.95;;
64826;SDS011;51265;53.972;12.286;2023-08-24T14:00:15;3.65;;;1.00;;
64826;SDS011;51265;53.972;12.286;2023-08-24T14:02:43;3.88;;;0.90;;
64826;SDS011;51265;53.972;12.286;2023-08-24T14:05:10;2.28;;;0.77;;
64826;SDS011;51265;53.972;12.286;2023-08-24T14:07:38;2.28;;;0.90;;
64826;SDS011;51265;53.972;12.286;2023-08-24T14:10:05;3.63;;;1.17;;
64826;SDS011;51265;53.972;12.286;2023-08-24T14:12:33;4.40;;;1.98;;
64826;SDS011;51265;53.972;12.286;2023-08-24T14:15:00;2.72;;;1.23;;
64826;SDS011;51265;53.972;12.286;2023-08-24T14:17:27;5.43;;;1.10;;
64826;SDS011;51265;53.972;12.286;2023-08-24T14:19:53;5.13;;;1.02;;
64826;SDS011;51265;53.972;12.286;2023-08-24T14:22:20;2.47;;;0.85;;
64826;SDS011;51265;53.972;12.286;2023-08-24T14:24:46;3.15;;;0.93;;
64826;SDS011;51265;53.972;12.286;2023-08-24T14:27:12;2.67;;;0.90;;
64826;SDS011;51265;53.972;12.286;2023-08-24T14:29:39;4.13;;;0.82;;
64826;SDS011;51265;53.972;12.286;2023-08-24T14:32:05;3.83;;;1.00;;
64826;SDS011;51265;53.972;12.286;2023-08-24T14:34:31;3.60;;;0.90;;
64826;SDS011;51265;53.972;12.286;2023-08-24T14:36:58;1.98;;;0.70;;
64826;SDS011;51265;53.972;12.286;2023-08-24T14:39:24;4.20;;;0.80;;
64826;SDS011;51265;53.972;12.286;2023-08-24T14:41:51;1.50;;;0.85;;
64826;SDS011;51265;53.972;12.286;2023-08-24T14:44:17;2.58;;;0.73;;
64826;SDS011;51265;53.972;12.286;2023-08-24T14:46:43;2.88;;;0.85;;
64826;SDS011;51265;53.972;12.286;2023-08-24T14:49:10;3.13;;;0.90;;
64826;SDS011;51265;53.972;12.286;2023-08-24T14:51:36;2.58;;;0.60;;